createdAt,value
2019-05-07T00:02:13.759Z,14.90
2019-05-07T00:04:17.556Z,18.00
2019-05-07T00:06:23.075Z,17.00
2019-05-07T00:08:26.625Z,16.00
2019-05-07T00:10:32.941Z,19.35
2019-05-07T00:12:35.779Z,15.72
2019-05-07T00:14:39.549Z,18.10
2019-05-07T00:16:43.280Z,21.95
2019-05-07T00:18:46.983Z,17.30
2019-05-07T00:20:52.799Z,17.25
2019-05-07T00:22:56.094Z,16.67
2019-05-07T00:24:59.789Z,17.60
2019-05-07T00:27:03.523Z,19.12
2019-05-07T00:29:07.282Z,20.88
2019-05-07T00:31:12.350Z,16.35
2019-05-07T00:33:16.150Z,23.07
2019-05-07T00:35:22.562Z,20.55
2019-05-07T00:37:28.057Z,17.75
2019-05-07T00:39:39.682Z,15.55
2019-05-07T00:41:47.719Z,16.07
2019-05-07T00:43:53.110Z,19.27
2019-05-07T00:46:04.209Z,19.40
2019-05-07T00:48:07.956Z,21.30
2019-05-07T00:50:13.305Z,16.87
2019-05-07T00:52:17.002Z,18.92
2019-05-07T00:54:22.892Z,19.15
2019-05-07T00:56:26.205Z,15.85
2019-05-07T00:58:31.997Z,19.62
2019-05-07T01:00:35.581Z,17.48
2019-05-07T01:02:39.286Z,16.82
2019-05-07T01:04:43.013Z,20.55
2019-05-07T01:06:46.739Z,17.00
2019-05-07T01:08:52.406Z,21.93
2019-05-07T01:10:55.859Z,19.12
2019-05-07T01:12:59.629Z,17.98
2019-05-07T01:15:04.247Z,19.05
2019-05-07T01:17:07.945Z,18.98
2019-05-07T01:19:12.538Z,17.62
2019-05-07T01:21:16.475Z,18.77
2019-05-07T01:23:20.174Z,15.78
2019-05-07T01:25:23.977Z,19.92
2019-05-07T01:27:27.694Z,19.00
2019-05-07T01:29:32.811Z,25.75
2019-05-07T01:31:38.372Z,20.77
2019-05-07T01:33:49.805Z,21.52
2019-05-07T01:35:58.109Z,21.48
2019-05-07T01:38:03.128Z,17.50
2019-05-07T01:40:07.258Z,23.30
2019-05-07T01:42:12.778Z,21.00
2019-05-07T01:44:16.389Z,19.73
2019-05-07T01:46:20.129Z,19.82
2019-05-07T01:48:23.897Z,19.02
2019-05-07T01:50:27.644Z,21.57
2019-05-07T01:52:33.137Z,17.10
2019-05-07T01:54:36.733Z,19.87
2019-05-07T01:56:42.609Z,18.23
2019-05-07T01:58:45.902Z,19.48
2019-05-07T02:00:49.613Z,18.95
2019-05-07T02:02:54.973Z,17.73
2019-05-07T02:05:03.421Z,18.85
2019-05-07T02:07:23.888Z,23.75
2019-05-07T02:09:38.266Z,19.62
2019-05-07T02:11:43.631Z,18.20
2019-05-07T02:13:47.430Z,24.30
2019-05-07T02:16:00.259Z,17.80
2019-05-07T02:17:56.598Z,20.02
2019-05-07T02:20:02.434Z,15.65
2019-05-07T02:22:05.723Z,17.52
2019-05-07T02:24:09.485Z,20.00
2019-05-07T02:26:13.510Z,25.62
2019-05-07T02:28:17.276Z,20.60
2019-05-07T02:30:23.744Z,17.95
2019-05-07T02:32:26.537Z,18.95
2019-05-07T02:34:30.264Z,18.15
2019-05-07T02:36:34.435Z,17.25
2019-05-07T02:38:45.641Z,17.67
2019-05-07T02:41:03.028Z,20.43
2019-05-07T02:43:06.958Z,18.17
2019-05-07T02:45:15.238Z,15.83
2019-05-07T02:47:23.519Z,21.25
2019-05-07T02:49:27.541Z,20.72
2019-05-07T02:51:43.540Z,17.87
2019-05-07T02:53:53.646Z,20.60
2019-05-07T02:55:58.905Z,17.48
2019-05-07T02:58:03.565Z,21.93
2019-05-07T03:00:07.816Z,21.17
2019-05-07T03:02:13.952Z,18.70
2019-05-07T03:04:16.921Z,21.15
2019-05-07T03:06:23.354Z,22.90
2019-05-07T03:08:27.592Z,19.90
2019-05-07T03:10:34.137Z,20.75
2019-05-07T03:12:36.838Z,18.87
2019-05-07T03:14:43.566Z,18.75
2019-05-07T03:16:49.386Z,16.57
2019-05-07T03:18:53.317Z,18.20
2019-05-07T03:20:58.572Z,16.75
2019-05-07T03:23:03.135Z,17.80
2019-05-07T03:25:08.831Z,18.50
2019-05-07T03:27:14.123Z,16.02
2019-05-07T03:29:19.750Z,18.35
2019-05-07T03:31:28.061Z,20.37
2019-05-07T03:33:36.983Z,16.05
2019-05-07T03:35:46.371Z,17.07
2019-05-07T03:37:47.954Z,16.55
2019-05-07T03:39:53.757Z,16.60
2019-05-07T03:41:57.039Z,15.48
2019-05-07T03:44:03.754Z,19.57
2019-05-07T03:46:14.052Z,16.17
2019-05-07T03:48:18.946Z,16.52
2019-05-07T03:50:23.317Z,17.07
2019-05-07T03:52:27.324Z,16.07
2019-05-07T03:54:33.780Z,19.90
2019-05-07T03:56:36.405Z,15.70
2019-05-07T03:58:42.874Z,14.58
2019-05-07T04:00:45.873Z,17.12
2019-05-07T04:02:52.481Z,16.23
2019-05-07T04:04:55.006Z,16.27
2019-05-07T04:06:58.726Z,15.50
2019-05-07T04:09:03.451Z,21.23
2019-05-07T04:11:07.252Z,15.53
2019-05-07T04:13:13.392Z,16.87
2019-05-07T04:15:19.425Z,18.65
2019-05-07T04:17:26.399Z,17.57
2019-05-07T04:19:27.504Z,15.53
2019-05-07T04:21:34.232Z,20.88
2019-05-07T04:23:36.688Z,20.45
2019-05-07T04:25:54.112Z,18.07
2019-05-07T04:28:03.818Z,23.55
2019-05-07T04:30:07.882Z,16.05
2019-05-07T04:32:14.352Z,19.62
2019-05-07T04:34:35.122Z,16.93
2019-05-07T04:36:43.264Z,19.57
2019-05-07T04:38:45.919Z,24.52
2019-05-07T04:40:49.636Z,22.05
2019-05-07T04:42:53.967Z,21.65
2019-05-07T04:44:57.863Z,17.95
2019-05-07T04:47:04.316Z,21.30
2019-05-07T04:49:06.991Z,17.57
2019-05-07T04:51:12.718Z,17.98
2019-05-07T04:53:16.504Z,18.23
2019-05-07T04:55:22.763Z,16.80
2019-05-07T04:57:25.714Z,16.93
2019-05-07T04:59:29.621Z,19.95
2019-05-07T05:01:34.962Z,18.87
2019-05-07T05:03:39.422Z,19.20
2019-05-07T05:05:43.709Z,15.25
2019-05-07T05:07:47.532Z,21.85
2019-05-07T05:09:53.136Z,18.98
2019-05-07T05:11:56.607Z,20.02
2019-05-07T05:14:02.738Z,17.52
2019-05-07T05:16:13.334Z,18.65
2019-05-07T05:18:17.044Z,20.30
2019-05-07T05:20:22.506Z,14.85
2019-05-07T05:22:31.750Z,19.52
2019-05-07T05:24:37.297Z,25.12
2019-05-07T05:26:41.934Z,23.25
2019-05-07T05:28:45.774Z,23.12
2019-05-07T05:30:56.927Z,21.23
2019-05-07T05:33:02.211Z,17.00
2019-05-07T05:35:12.511Z,17.75
2019-05-07T05:37:15.810Z,12.47
2019-05-07T05:39:19.512Z,18.37
2019-05-07T05:41:24.730Z,17.92
2019-05-07T05:43:32.545Z,16.30
2019-05-07T05:45:46.674Z,15.48
2019-05-07T05:48:01.973Z,21.95
2019-05-07T05:49:55.802Z,15.43
2019-05-07T05:52:03.912Z,15.93
2019-05-07T05:54:25.908Z,17.48
2019-05-07T05:56:42.565Z,17.37
2019-05-07T05:58:47.363Z,14.87
2019-05-07T06:00:55.749Z,15.88
2019-05-07T06:03:07.246Z,16.67
2019-05-07T06:05:28.885Z,15.70
2019-05-07T06:07:40.040Z,13.53
2019-05-07T06:10:02.558Z,12.58
2019-05-07T06:12:08.040Z,13.18
2019-05-07T06:14:13.398Z,13.65
2019-05-07T06:16:18.824Z,10.63
2019-05-07T06:18:41.871Z,13.75
2019-05-07T06:20:52.286Z,12.70
2019-05-07T06:23:15.850Z,12.75
2019-05-07T06:25:25.134Z,11.00
2019-05-07T06:27:29.145Z,13.98
2019-05-07T06:29:33.090Z,16.25
2019-05-07T06:31:36.971Z,12.07
2019-05-07T06:33:42.860Z,11.25
2019-05-07T06:35:46.164Z,10.58
2019-05-07T06:37:52.025Z,12.82
2019-05-07T06:40:08.996Z,15.60
2019-05-07T06:42:33.128Z,12.60
2019-05-07T06:44:36.435Z,13.45
2019-05-07T06:46:41.940Z,13.00
2019-05-07T06:48:46.348Z,12.80
2019-05-07T06:50:59.406Z,11.55
2019-05-07T06:53:03.134Z,13.65
2019-05-07T06:55:06.936Z,10.80
2019-05-07T06:57:12.913Z,16.50
2019-05-07T06:59:22.323Z,11.83
2019-05-07T07:01:43.852Z,17.45
2019-05-07T07:04:07.248Z,30.10
2019-05-07T07:06:22.982Z,11.23
2019-05-07T07:08:43.488Z,7.95
2019-05-07T07:11:02.650Z,14.15
2019-05-07T07:13:06.315Z,10.50
2019-05-07T07:15:12.200Z,11.78
2019-05-07T07:17:16.008Z,13.75
2019-05-07T07:19:19.714Z,11.22
2019-05-07T07:21:23.433Z,9.93
2019-05-07T07:23:27.193Z,10.95
2019-05-07T07:25:32.583Z,12.93
2019-05-07T07:27:36.404Z,11.45
2019-05-07T07:29:43.505Z,10.85
2019-05-07T07:31:52.760Z,8.63
2019-05-07T07:33:58.226Z,9.98
2019-05-07T07:36:02.611Z,10.95
2019-05-07T07:38:24.424Z,8.25
2019-05-07T07:40:32.816Z,10.40
2019-05-07T07:42:36.678Z,9.25
2019-05-07T07:44:42.431Z,12.15
2019-05-07T07:46:45.826Z,12.53
2019-05-07T07:49:04.251Z,9.43
2019-05-07T07:50:54.957Z,11.88
2019-05-07T07:52:58.661Z,14.07
2019-05-07T07:55:02.467Z,17.52
2019-05-07T07:57:21.700Z,12.82
2019-05-07T07:59:32.971Z,11.10
2019-05-07T08:01:38.342Z,14.03
2019-05-07T08:03:42.145Z,12.93
2019-05-07T08:05:45.848Z,14.63
2019-05-07T08:07:49.597Z,13.93
2019-05-07T08:09:53.325Z,13.25
2019-05-07T08:11:57.047Z,16.55
2019-05-07T08:14:02.306Z,13.90
2019-05-07T08:16:06.270Z,12.98
2019-05-07T08:18:11.849Z,13.18
2019-05-07T08:20:16.555Z,13.50
2019-05-07T08:22:22.343Z,13.58
2019-05-07T08:24:25.721Z,16.55
2019-05-07T08:26:29.446Z,14.55
2019-05-07T08:28:33.154Z,10.98
2019-05-07T08:30:36.981Z,13.78
2019-05-07T08:33:02.197Z,16.57
2019-05-07T08:35:09.181Z,12.20
2019-05-07T08:37:12.936Z,15.03
2019-05-07T08:39:16.653Z,14.28
2019-05-07T08:41:22.735Z,14.55
2019-05-07T08:43:26.517Z,14.53
2019-05-07T08:45:48.390Z,15.15
2019-05-07T08:47:53.753Z,13.15
2019-05-07T08:49:57.533Z,14.38
2019-05-07T08:52:03.447Z,12.88
2019-05-07T08:54:06.649Z,13.70
2019-05-07T08:56:12.307Z,11.00
2019-05-07T08:58:15.737Z,14.25
2019-05-07T09:00:22.314Z,12.90
2019-05-07T09:02:26.129Z,24.07
2019-05-07T09:04:29.875Z,11.93
2019-05-07T09:06:33.754Z,13.95
2019-05-07T09:08:37.464Z,12.53
2019-05-07T09:10:42.229Z,11.43
2019-05-07T09:12:46.013Z,18.12
2019-05-07T09:14:49.737Z,12.15
2019-05-07T09:16:53.482Z,14.73
2019-05-07T09:18:57.294Z,16.40
2019-05-07T09:21:02.162Z,13.98
2019-05-07T09:23:06.042Z,13.00
2019-05-07T09:25:09.952Z,14.20
2019-05-07T09:27:15.326Z,15.15
2019-05-07T09:29:37.087Z,12.25
2019-05-07T09:31:52.579Z,13.68
2019-05-07T09:33:58.001Z,16.42
2019-05-07T09:36:02.212Z,13.38
2019-05-07T09:38:06.174Z,12.23
2019-05-07T09:40:12.450Z,13.60
2019-05-07T09:42:15.862Z,14.15
2019-05-07T09:46:28.851Z,11.15
2019-05-07T09:48:33.813Z,14.40
2019-05-07T09:50:37.666Z,13.32
2019-05-07T09:52:42.687Z,14.53
2019-05-07T09:54:46.518Z,11.57
2019-05-07T09:56:50.220Z,17.67
2019-05-07T09:58:53.962Z,16.00
2019-05-07T10:00:57.754Z,13.85
2019-05-07T10:03:01.495Z,10.93
2019-05-07T10:05:07.017Z,13.95
2019-05-07T10:07:12.617Z,9.93
2019-05-07T10:09:17.303Z,10.85
2019-05-07T10:11:25.415Z,11.00
2019-05-07T10:13:32.865Z,12.58
2019-05-07T10:15:36.253Z,12.53
2019-05-07T10:17:41.628Z,10.05
2019-05-07T10:19:45.357Z,13.30
2019-05-07T10:21:49.104Z,12.85
2019-05-07T10:23:52.845Z,12.53
2019-05-07T10:25:56.865Z,11.00
2019-05-07T10:28:01.982Z,10.70
2019-05-07T10:30:06.257Z,11.08
2019-05-07T10:32:12.611Z,11.43
2019-05-07T10:34:15.429Z,14.00
2019-05-07T10:36:19.174Z,13.58
2019-05-07T10:38:22.891Z,11.53
2019-05-07T10:40:26.901Z,13.60
2019-05-07T10:42:32.280Z,12.50
2019-05-07T10:44:38.021Z,11.40
2019-05-07T10:46:46.286Z,12.15
2019-05-07T10:48:51.655Z,14.33
2019-05-07T10:50:57.037Z,13.88
2019-05-07T10:53:02.046Z,13.40
2019-05-07T10:55:06.087Z,12.33
2019-05-07T10:57:11.836Z,15.55
2019-05-07T10:59:15.247Z,14.10
2019-05-07T11:01:22.387Z,13.35
2019-05-07T11:03:26.055Z,8.80
2019-05-07T11:05:29.841Z,11.73
2019-05-07T11:07:33.566Z,14.78
2019-05-07T11:09:37.366Z,10.60
2019-05-07T11:11:42.357Z,12.25
2019-05-07T11:13:46.200Z,14.70
2019-05-07T11:15:51.812Z,15.75
2019-05-07T11:17:57.214Z,15.55
2019-05-07T11:20:01.037Z,12.55
2019-05-07T11:22:05.005Z,13.25
2019-05-07T11:24:08.731Z,12.10
2019-05-07T11:26:12.789Z,11.95
2019-05-07T11:28:16.785Z,10.88
2019-05-07T11:30:22.753Z,10.72
2019-05-07T11:32:26.730Z,14.95
2019-05-07T11:34:32.819Z,10.30
2019-05-07T11:36:36.641Z,12.00
2019-05-07T11:38:41.822Z,10.03
2019-05-07T11:40:46.110Z,12.98
2019-05-07T11:43:06.607Z,10.23
2019-05-07T11:45:12.894Z,14.10
2019-05-07T11:47:24.415Z,13.53
2019-05-07T11:49:49.542Z,15.53
2019-05-07T11:51:58.181Z,14.28
2019-05-07T11:54:08.946Z,14.87
2019-05-07T11:56:12.757Z,12.50
2019-05-07T11:58:16.468Z,14.47
2019-05-07T12:00:39.269Z,21.30
2019-05-07T12:02:47.232Z,16.93
2019-05-07T12:04:50.141Z,13.05
2019-05-07T12:06:53.918Z,14.50
2019-05-07T12:08:57.745Z,16.02
2019-05-07T12:11:02.426Z,13.15
2019-05-07T12:13:06.285Z,14.15
2019-05-07T12:15:10.069Z,45.55
2019-05-07T12:17:13.888Z,23.67
2019-05-07T12:19:17.817Z,13.58
2019-05-07T12:21:24.201Z,17.75
2019-05-07T12:23:26.904Z,13.40
2019-05-07T12:25:32.080Z,12.65
2019-05-07T12:27:36.046Z,12.20
2019-05-07T12:29:39.771Z,10.72
2019-05-07T12:31:45.128Z,12.85
2019-05-07T12:33:56.696Z,11.88
2019-05-07T12:36:01.985Z,12.82
2019-05-07T12:38:05.850Z,12.65
2019-05-07T12:40:12.306Z,9.68
2019-05-07T12:42:15.321Z,13.00
2019-05-07T12:44:19.042Z,11.43
2019-05-07T12:46:22.848Z,12.23
2019-05-07T12:48:26.601Z,15.90
2019-05-07T12:50:32.175Z,10.80
2019-05-07T12:52:42.138Z,10.40
2019-05-07T12:54:49.931Z,11.22
2019-05-07T12:56:53.671Z,10.35
2019-05-07T12:58:57.456Z,9.13
2019-05-07T13:01:08.533Z,13.00
2019-05-07T13:03:32.322Z,11.43
2019-05-07T13:05:36.391Z,10.95
2019-05-07T13:07:41.877Z,11.80
2019-05-07T13:09:45.690Z,10.23
2019-05-07T13:11:49.433Z,11.12
2019-05-07T13:13:53.211Z,15.75
2019-05-07T13:15:56.906Z,11.38
2019-05-07T13:18:02.567Z,14.07
2019-05-07T13:20:07.823Z,12.15
2019-05-07T13:22:12.987Z,13.05
2019-05-07T13:24:16.958Z,11.43
2019-05-07T13:26:24.346Z,11.70
2019-05-07T13:28:26.228Z,11.75
2019-05-07T13:30:29.988Z,14.98
2019-05-07T13:32:35.703Z,11.68
2019-05-07T13:34:39.581Z,10.80
2019-05-07T13:36:45.165Z,12.28
2019-05-07T13:38:57.056Z,13.75
2019-05-07T13:41:08.723Z,11.38
2019-05-07T13:43:17.161Z,15.90
2019-05-07T13:45:22.551Z,12.25
2019-05-07T13:47:28.210Z,14.80
2019-05-07T13:49:32.337Z,13.72
2019-05-07T13:51:36.438Z,13.00
2019-05-07T13:53:40.217Z,13.72
2019-05-07T13:55:43.957Z,13.30
2019-05-07T13:57:47.766Z,10.75
2019-05-07T13:59:53.030Z,16.20
2019-05-07T14:01:58.537Z,12.45
2019-05-07T14:04:04.151Z,12.20
2019-05-07T14:06:08.170Z,12.43
2019-05-07T14:08:12.034Z,16.50
2019-05-07T14:10:18.925Z,13.95
2019-05-07T14:12:23.135Z,14.20
2019-05-07T14:14:26.984Z,12.43
2019-05-07T14:16:30.735Z,11.43
2019-05-07T14:18:36.393Z,10.98
2019-05-07T14:20:42.381Z,8.35
2019-05-07T14:22:45.484Z,10.82
2019-05-07T14:24:49.302Z,11.20
2019-05-07T14:26:53.137Z,10.40
2019-05-07T14:28:56.914Z,10.40
2019-05-07T14:31:01.877Z,10.30
2019-05-07T14:33:12.400Z,10.48
2019-05-07T14:35:20.312Z,9.28
2019-05-07T14:37:27.318Z,22.40
2019-05-07T14:39:33.193Z,9.18
2019-05-07T14:41:37.002Z,10.28
2019-05-07T14:43:42.383Z,9.03
2019-05-07T14:45:46.164Z,13.35
2019-05-07T14:47:52.115Z,12.37
2019-05-07T14:49:55.337Z,15.38
2019-05-07T14:51:59.085Z,15.53
2019-05-07T14:54:02.940Z,12.78
2019-05-07T14:56:06.662Z,12.90
2019-05-07T14:58:12.244Z,13.22
2019-05-07T15:00:17.050Z,15.45
2019-05-07T15:02:20.956Z,28.92
2019-05-07T15:04:24.724Z,47.17
2019-05-07T15:06:28.539Z,16.55
2019-05-07T15:08:32.415Z,14.60
2019-05-07T15:10:36.089Z,14.47
2019-05-07T15:12:39.816Z,13.98
2019-05-07T15:14:43.557Z,11.73
2019-05-07T15:16:49.644Z,13.08
2019-05-07T15:18:54.547Z,16.15
2019-05-07T15:20:58.272Z,27.58
2019-05-07T15:23:07.813Z,10.63
2019-05-07T15:25:13.969Z,16.82
2019-05-07T15:27:17.781Z,24.35
2019-05-07T15:29:22.322Z,43.92
2019-05-07T15:31:32.069Z,18.70
2019-05-07T15:33:35.832Z,9.98
2019-05-07T15:35:39.548Z,10.85
2019-05-07T15:37:43.298Z,16.75
2019-05-07T15:39:47.110Z,16.97
2019-05-07T15:41:51.782Z,13.53
2019-05-07T15:43:55.764Z,19.17
2019-05-07T15:46:01.853Z,13.48
2019-05-07T15:48:04.968Z,10.78
2019-05-07T15:50:08.777Z,9.78
2019-05-07T15:52:14.218Z,10.63
2019-05-07T15:54:17.968Z,13.58
2019-05-07T15:56:21.950Z,12.23
2019-05-07T15:58:25.721Z,10.80
2019-05-07T16:00:33.302Z,10.55
2019-05-07T16:02:38.253Z,12.58
2019-05-07T16:04:41.997Z,13.05
2019-05-07T16:06:45.754Z,12.18
2019-05-07T16:08:51.116Z,9.48
2019-05-07T16:10:54.999Z,10.32
2019-05-07T16:12:58.793Z,11.00
2019-05-07T16:15:03.220Z,13.35
2019-05-07T16:17:09.757Z,10.80
2019-05-07T16:19:17.838Z,10.68
2019-05-07T16:21:22.584Z,11.88
2019-05-07T16:23:26.507Z,15.15
2019-05-07T16:25:30.241Z,12.33
2019-05-07T16:27:35.642Z,12.13
2019-05-07T16:29:39.349Z,12.25
2019-05-07T16:31:44.187Z,12.85
2019-05-07T16:33:48.177Z,11.48
2019-05-07T16:35:51.918Z,12.65
2019-05-07T16:37:55.696Z,15.23
2019-05-07T16:40:01.622Z,16.02
2019-05-07T16:42:04.753Z,13.90
2019-05-07T16:44:08.549Z,9.53
2019-05-07T16:46:12.256Z,15.83
2019-05-07T16:48:15.968Z,13.98
2019-05-07T16:50:22.210Z,14.87
2019-05-07T16:52:25.175Z,14.18
2019-05-07T16:54:28.900Z,14.28
2019-05-07T16:56:33.371Z,20.75
2019-05-07T16:58:39.006Z,16.65
2019-05-07T17:00:53.950Z,16.00
2019-05-07T17:02:59.086Z,14.75
2019-05-07T17:05:07.467Z,14.78
2019-05-07T17:07:13.378Z,16.10
2019-05-07T17:09:17.085Z,14.85
2019-05-07T17:11:22.503Z,14.33
2019-05-07T17:13:26.253Z,47.98
2019-05-07T17:15:30.029Z,15.72
2019-05-07T17:17:33.824Z,18.27
2019-05-07T17:19:37.606Z,18.25
2019-05-07T17:21:43.085Z,15.70
2019-05-07T17:23:46.809Z,18.55
2019-05-07T17:25:52.597Z,16.35
2019-05-07T17:27:56.101Z,15.55
2019-05-07T17:30:00.016Z,15.63
2019-05-07T17:32:03.873Z,15.85
2019-05-07T17:34:07.625Z,16.80
2019-05-07T17:36:12.052Z,14.30
2019-05-07T17:38:15.971Z,14.58
2019-05-07T17:40:19.814Z,16.25
2019-05-07T17:42:23.610Z,17.07
2019-05-07T17:44:27.318Z,14.35
2019-05-07T17:46:32.427Z,21.55
2019-05-07T17:48:36.419Z,16.35
2019-05-07T17:50:47.337Z,17.12
2019-05-07T17:52:53.330Z,19.57
2019-05-07T17:54:56.460Z,17.42
2019-05-07T17:57:01.982Z,19.42
2019-05-07T17:59:05.733Z,21.15
2019-05-07T18:01:09.727Z,16.97
2019-05-07T18:03:32.340Z,18.85
2019-05-07T18:05:35.881Z,18.90
2019-05-07T18:07:41.940Z,21.60
2019-05-07T18:09:45.078Z,21.10
2019-05-07T18:11:48.858Z,29.80
2019-05-07T18:13:53.292Z,25.43
2019-05-07T18:15:58.633Z,28.42
2019-05-07T18:18:04.129Z,24.72
2019-05-07T18:20:08.128Z,24.65
2019-05-07T18:22:12.799Z,18.12
2019-05-07T18:24:16.989Z,20.82
2019-05-07T18:26:29.658Z,21.73
2019-05-07T18:28:27.914Z,22.75
2019-05-07T18:30:32.665Z,22.35
2019-05-07T18:32:42.695Z,23.98
2019-05-07T18:34:46.208Z,24.05
2019-05-07T18:36:53.014Z,39.03
2019-05-07T18:38:56.562Z,54.95
2019-05-07T18:41:02.360Z,96.17
2019-05-07T18:43:05.732Z,121.87
2019-05-07T18:45:09.523Z,85.92
2019-05-07T18:47:13.261Z,77.20
2019-05-07T18:49:16.997Z,61.58
2019-05-07T18:51:20.776Z,56.10
2019-05-07T18:53:24.629Z,48.70
2019-05-07T18:55:28.372Z,57.05
2019-05-07T18:57:32.802Z,54.95
2019-05-07T18:59:37.281Z,53.85
2019-05-07T19:01:42.786Z,44.55
2019-05-07T19:03:46.677Z,43.90
2019-05-07T19:05:51.962Z,48.00
2019-05-07T19:08:07.136Z,39.85
2019-05-07T19:10:02.689Z,33.48
2019-05-07T19:12:08.381Z,29.27
2019-05-07T19:14:13.412Z,35.48
2019-05-07T19:16:17.391Z,34.98
2019-05-07T19:18:22.848Z,33.55
2019-05-07T19:20:26.579Z,33.70
2019-05-07T19:22:30.299Z,32.23
2019-05-07T19:24:44.190Z,29.65
2019-05-07T19:26:39.599Z,30.90
2019-05-07T19:28:43.321Z,26.93
2019-05-07T19:30:47.103Z,26.00
2019-05-07T19:32:52.163Z,28.02
2019-05-07T19:34:56.021Z,32.25
2019-05-07T19:36:59.769Z,33.55
2019-05-07T19:39:05.138Z,32.45
2019-05-07T19:41:09.030Z,29.75
2019-05-07T19:43:13.164Z,28.62
2019-05-07T19:45:18.995Z,31.37
2019-05-07T19:47:23.329Z,31.23
2019-05-07T19:49:27.228Z,34.85
2019-05-07T19:51:32.053Z,34.65
2019-05-07T19:53:36.245Z,35.70
2019-05-07T19:55:57.845Z,35.30
2019-05-07T19:58:05.911Z,31.95
2019-05-07T20:00:12.150Z,41.77
2019-05-07T20:02:17.561Z,56.00
2019-05-07T20:04:21.313Z,51.77
2019-05-07T20:06:25.038Z,64.50
2019-05-07T20:08:28.750Z,52.48
2019-05-07T20:10:34.152Z,52.58
2019-05-07T20:12:37.862Z,52.98
2019-05-07T20:14:42.202Z,54.05
2019-05-07T20:16:46.108Z,50.83
2019-05-07T20:18:52.150Z,55.98
2019-05-07T20:20:55.276Z,51.85
2019-05-07T20:22:59.070Z,51.98
2019-05-07T20:25:15.192Z,52.93
2019-05-07T20:27:08.308Z,53.05
2019-05-07T20:29:12.484Z,51.18
2019-05-07T20:31:16.264Z,52.30
2019-05-07T20:33:21.858Z,53.02
2019-05-07T20:35:25.630Z,53.95
2019-05-07T20:37:29.423Z,53.92
2019-05-07T20:39:35.042Z,55.63
2019-05-07T20:41:38.503Z,54.90
2019-05-07T20:43:42.871Z,50.15
2019-05-07T20:45:46.833Z,47.78
2019-05-07T20:47:52.356Z,48.85
2019-05-07T20:49:56.041Z,49.70
2019-05-07T20:51:59.758Z,44.15
2019-05-07T20:54:14.405Z,46.55
2019-05-07T20:56:19.769Z,50.43
2019-05-07T20:58:23.478Z,48.35
2019-05-07T21:00:28.626Z,55.10
2019-05-07T21:02:44.398Z,58.02
2019-05-07T21:04:37.919Z,58.28
2019-05-07T21:06:43.152Z,63.68
2019-05-07T21:08:47.190Z,63.90
2019-05-07T21:10:53.244Z,63.85
2019-05-07T21:12:56.239Z,63.13
2019-05-07T21:15:03.404Z,59.53
2019-05-07T21:17:07.048Z,59.77
2019-05-07T21:19:12.787Z,54.38
2019-05-07T21:21:16.176Z,58.95
2019-05-07T21:23:19.928Z,55.30
2019-05-07T21:25:23.634Z,55.90
2019-05-07T21:27:27.418Z,54.05
2019-05-07T21:29:32.685Z,55.40
2019-05-07T21:31:36.494Z,53.85
2019-05-07T21:33:42.578Z,53.75
2019-05-07T21:35:45.680Z,57.85
2019-05-07T21:37:49.367Z,52.85
2019-05-07T21:39:53.302Z,55.40
2019-05-07T21:41:57.053Z,53.48
2019-05-07T21:44:00.844Z,51.85
2019-05-07T21:46:04.616Z,53.63
2019-05-07T21:48:10.453Z,55.60
2019-05-07T21:50:16.042Z,53.42
2019-05-07T21:52:22.028Z,58.00
2019-05-07T21:54:26.862Z,51.90
2019-05-07T21:56:32.257Z,59.70
2019-05-07T21:58:37.625Z,60.58
2019-05-07T22:01:02.156Z,56.60
2019-05-07T22:03:13.597Z,66.60
2019-05-07T22:05:17.535Z,73.65
2019-05-07T22:07:22.742Z,67.45
2019-05-07T22:09:26.670Z,67.58
2019-05-07T22:11:32.345Z,65.42
2019-05-07T22:13:35.756Z,69.97
2019-05-07T22:15:39.485Z,70.80
2019-05-07T22:17:44.367Z,66.33
2019-05-07T22:19:48.210Z,66.87
2019-05-07T22:21:52.388Z,72.62
2019-05-07T22:23:56.238Z,70.00
2019-05-07T22:26:16.458Z,70.57
2019-05-07T22:28:05.585Z,75.92
2019-05-07T22:30:12.512Z,72.50
2019-05-07T22:32:22.364Z,66.72
2019-05-07T22:34:27.897Z,73.30
2019-05-07T22:36:32.714Z,64.55
2019-05-07T22:38:36.557Z,69.50
2019-05-07T22:40:40.260Z,63.55
2019-05-07T22:42:43.977Z,65.83
2019-05-07T22:44:47.736Z,66.72
2019-05-07T22:46:52.705Z,68.02
2019-05-07T22:48:56.625Z,65.15
2019-05-07T22:51:02.592Z,69.62
2019-05-07T22:53:05.941Z,63.58
2019-05-07T22:55:09.657Z,66.97
2019-05-07T22:57:22.833Z,64.07
2019-05-07T22:59:26.389Z,63.87
2019-05-07T23:01:31.972Z,64.05
2019-05-07T23:03:35.556Z,65.30
2019-05-07T23:05:39.252Z,63.38
2019-05-07T23:07:44.050Z,63.55
2019-05-07T23:09:48.031Z,62.48
2019-05-07T23:11:52.681Z,64.50
2019-05-07T23:13:57.187Z,60.33
2019-05-07T23:16:02.664Z,58.45
2019-05-07T23:18:06.586Z,56.60
2019-05-07T23:20:10.463Z,59.10
2019-05-07T23:22:14.200Z,59.05
2019-05-07T23:24:17.918Z,56.60
2019-05-07T23:26:23.323Z,58.63
2019-05-07T23:28:27.340Z,58.98
2019-05-07T23:30:32.985Z,60.05
2019-05-07T23:32:36.434Z,62.23
2019-05-07T23:34:40.135Z,60.20
2019-05-07T23:36:43.859Z,56.70
2019-05-07T23:38:47.617Z,57.88
2019-05-07T23:40:55.669Z,60.28
2019-05-07T23:43:03.712Z,63.95
2019-05-07T23:45:08.005Z,63.10
2019-05-07T23:47:12.239Z,58.33
2019-05-07T23:49:16.040Z,59.58
2019-05-07T23:51:19.769Z,57.25
2019-05-07T23:53:23.475Z,58.42
2019-05-07T23:55:27.204Z,59.35
2019-05-07T23:57:32.541Z,58.80
2019-05-07T23:59:36.519Z,60.67
